aviador You're here:

KSAV Decoded Metar

SAVANNAH in GA, USA
Report Time2017-08-18 00:53:00
UTC Time2017-08-18 01:02:25
Flight Rules vfr VFR
Wind200° at 08 kt
W.Decomp.*RWY 19: 7.7 kt HW 2.2 kt RCW
RWY 28: 2.2 kt HW 7.7 kt LCW
W.Rank200° ranks 19
Current wind is above 200° avg. (6.5)
Visibility9999 m
Phenomena:N/A
Clouds:Few 050 Hf
Few 080 Hf
Scattered 140 Hf
Scattered 220 Hf
Expected CloudBase > 1,200 ft AGL from Temp-Dew spread
CeilingNone
Temp29°C (ISA +14)
Dew Point26°C (84% RH)
Heat Index35.6°C
QNH1016 hPa
Density Alt2,001 ft
Elevation46 ft
Report Wrong Elevation
Raw Report
KSAV 180053Z 20008KT 10SM FEW050 FEW080 SCT140 SCT220 29/26 A3001
RMK AO2 LTG DSNT W SLP160 OCNL LTGIC DSNT W CB DSNT SW-W
T02940256=

Extra information for KSAV:More info

Metar Taf Metar & Taf Last 4 Metars F.Rules Stats Wind Profile Meteogram Temp Stats Airport Information Weather charts Add Link Nearby VenuesMetar ALERT Operation Metar Decoded Social comments

AIRNAV info for KSAV